sensor_id;sensor_type;location;lat;lon;timestamp;pressure;altitude;pressure_sealevel;temperature;humidity
78144;BME280;67394;52.522;13.622;2023-04-03T00:01:46;102433.84;;;-0.19;77.96
78144;BME280;67394;52.522;13.622;2023-04-03T00:04:12;102436.81;;;-0.24;77.27
78144;BME280;67394;52.522;13.622;2023-04-03T00:06:38;102432.41;;;-0.27;78.03
78144;BME280;67394;52.522;13.622;2023-04-03T00:09:05;102437.03;;;-0.21;77.62
78144;BME280;67394;52.522;13.622;2023-04-03T00:11:33;102431.78;;;-0.24;77.55
78144;BME280;67394;52.522;13.622;2023-04-03T00:14:00;102440.09;;;-0.25;77.25
78144;BME280;67394;52.522;13.622;2023-04-03T00:16:26;102437.47;;;-0.27;77.64
78144;BME280;67394;52.522;13.622;2023-04-03T00:18:53;102442.16;;;-0.31;77.89
78144;BME280;67394;52.522;13.622;2023-04-03T00:21:19;102439.44;;;-0.34;77.60
78144;BME280;67394;52.522;13.622;2023-04-03T00:23:45;102438.56;;;-0.35;78.05
78144;BME280;67394;52.522;13.622;2023-04-03T00:26:12;102439.63;;;-0.31;77.91
78144;BME280;67394;52.522;13.622;2023-04-03T00:28:38;102445.00;;;-0.27;77.13
78144;BME280;67394;52.522;13.622;2023-04-03T00:31:04;102439.31;;;-0.36;78.23
78144;BME280;67394;52.522;13.622;2023-04-03T00:33:31;102441.50;;;-0.41;78.29
78144;BME280;67394;52.522;13.622;2023-04-03T00:35:57;102443.38;;;-0.38;77.70
78144;BME280;67394;52.522;13.622;2023-04-03T00:38:23;102439.66;;;-0.43;77.72
78144;BME280;67394;52.522;13.622;2023-04-03T00:40:50;102440.53;;;-0.43;78.04
78144;BME280;67394;52.522;13.622;2023-04-03T00:43:19;102445.47;;;-0.44;77.23
78144;BME280;67394;52.522;13.622;2023-04-03T00:45:48;102443.69;;;-0.45;77.94
78144;BME280;67394;52.522;13.622;2023-04-03T00:48:21;102440.72;;;-0.51;77.97
78144;BME280;67394;52.522;13.622;2023-04-03T00:50:49;102444.00;;;-0.52;77.49
78144;BME280;67394;52.522;13.622;2023-04-03T00:53:19;102451.78;;;-0.49;77.00
78144;BME280;67394;52.522;13.622;2023-04-03T00:55:49;102443.34;;;-0.50;77.63
78144;BME280;67394;52.522;13.622;2023-04-03T00:58:19;102443.13;;;-0.53;77.74
78144;BME280;67394;52.522;13.622;2023-04-03T01:00:51;102443.78;;;-0.55;78.14
78144;BME280;67394;52.522;13.622;2023-04-03T01:03:19;102446.09;;;-0.58;78.07
78144;BME280;67394;52.522;13.622;2023-04-03T01:05:46;102447.72;;;-0.59;78.25
78144;BME280;67394;52.522;13.622;2023-04-03T01:08:12;102448.03;;;-0.66;78.32
78144;BME280;67394;52.522;13.622;2023-04-03T01:10:38;102449.03;;;-0.64;78.44
78144;BME280;67394;52.522;13.622;2023-04-03T01:13:21;102442.88;;;-0.67;78.94
78144;BME280;67394;52.522;13.622;2023-04-03T01:15:48;102447.69;;;-0.70;79.11
78144;BME280;67394;52.522;13.622;2023-04-03T01:18:15;102443.22;;;-0.75;79.29
78144;BME280;67394;52.522;13.622;2023-04-03T01:23:45;102443.84;;;-0.77;78.48
78144;BME280;67394;52.522;13.622;2023-04-03T01:26:14;102446.91;;;-0.81;79.26
78144;BME280;67394;52.522;13.622;2023-04-03T01:28:41;102444.25;;;-0.83;79.40
78144;BME280;67394;52.522;13.622;2023-04-03T01:31:23;102445.91;;;-0.83;79.39
78144;BME280;67394;52.522;13.622;2023-04-03T01:33:51;102441.75;;;-0.83;79.01
78144;BME280;67394;52.522;13.622;2023-04-03T01:36:22;102444.50;;;-0.80;79.08
78144;BME280;67394;52.522;13.622;2023-04-03T01:38:49;102448.53;;;-0.82;79.43
78144;BME280;67394;52.522;13.622;2023-04-03T01:41:15;102459.81;;;-0.88;79.59
78144;BME280;67394;52.522;13.622;2023-04-03T01:43:42;102448.75;;;-0.90;79.59
78144;BME280;67394;52.522;13.622;2023-04-03T01:46:08;102453.88;;;-0.89;79.73
78144;BME280;67394;52.522;13.622;2023-04-03T01:48:35;102461.19;;;-0.92;80.30
78144;BME280;67394;52.522;13.622;2023-04-03T01:51:01;102461.69;;;-0.86;79.17
78144;BME280;67394;52.522;13.622;2023-04-03T01:53:29;102466.47;;;-0.89;79.38
78144;BME280;67394;52.522;13.622;2023-04-03T01:55:55;102467.22;;;-0.90;79.65
78144;BME280;67394;52.522;13.622;2023-04-03T01:58:21;102460.44;;;-0.91;79.45
78144;BME280;67394;52.522;13.622;2023-04-03T02:00:48;102458.81;;;-0.90;79.56
78144;BME280;67394;52.522;13.622;2023-04-03T02:03:14;102466.88;;;-0.94;79.46
78144;BME280;67394;52.522;13.622;2023-04-03T02:05:41;102465.34;;;-0.92;79.33
78144;BME280;67394;52.522;13.622;2023-04-03T02:08:07;102462.50;;;-0.97;79.49
78144;BME280;67394;52.522;13.622;2023-04-03T02:10:33;102467.75;;;-0.94;80.12
78144;BME280;67394;52.522;13.622;2023-04-03T02:13:00;102465.78;;;-0.98;79.75
78144;BME280;67394;52.522;13.622;2023-04-03T02:15:26;102465.44;;;-1.02;80.23
78144;BME280;67394;52.522;13.622;2023-04-03T02:17:53;102474.63;;;-1.03;79.75
78144;BME280;67394;52.522;13.622;2023-04-03T02:20:20;102469.06;;;-0.99;79.68
78144;BME280;67394;52.522;13.622;2023-04-03T02:22:47;102467.44;;;-0.98;80.22
78144;BME280;67394;52.522;13.622;2023-04-03T02:25:13;102476.50;;;-1.00;80.06
78144;BME280;67394;52.522;13.622;2023-04-03T02:27:40;102476.72;;;-0.97;79.70
78144;BME280;67394;52.522;13.622;2023-04-03T02:30:06;102480.88;;;-0.98;80.09
78144;BME280;67394;52.522;13.622;2023-04-03T02:32:33;102483.53;;;-0.96;79.87
78144;BME280;67394;52.522;13.622;2023-04-03T02:34:59;102484.16;;;-0.99;80.09
78144;BME280;67394;52.522;13.622;2023-04-03T02:37:27;102482.41;;;-1.00;80.46
78144;BME280;67394;52.522;13.622;2023-04-03T02:39:53;102483.53;;;-0.96;80.10
78144;BME280;67394;52.522;13.622;2023-04-03T02:42:19;102491.84;;;-0.97;79.69
78144;BME280;67394;52.522;13.622;2023-04-03T02:44:46;102489.63;;;-0.93;80.22
78144;BME280;67394;52.522;13.622;2023-04-03T02:47:12;102490.28;;;-0.95;79.95
78144;BME280;67394;52.522;13.622;2023-04-03T02:49:38;102491.47;;;-1.02;80.11
78144;BME280;67394;52.522;13.622;2023-04-03T02:52:04;102500.78;;;-1.01;79.86
78144;BME280;67394;52.522;13.622;2023-04-03T02:54:31;102500.53;;;-1.04;80.08
78144;BME280;67394;52.522;13.622;2023-04-03T02:56:57;102504.06;;;-1.02;80.26
78144;BME280;67394;52.522;13.622;2023-04-03T02:59:24;102500.66;;;-1.02;80.08
78144;BME280;67394;52.522;13.622;2023-04-03T03:01:51;102499.25;;;-0.99;80.87
78144;BME280;67394;52.522;13.622;2023-04-03T03:04:17;102505.81;;;-1.01;80.00
78144;BME280;67394;52.522;13.622;2023-04-03T03:06:43;102507.88;;;-1.07;80.84
78144;BME280;67394;52.522;13.622;2023-04-03T03:09:10;102511.34;;;-1.05;80.40
78144;BME280;67394;52.522;13.622;2023-04-03T03:11:36;102509.03;;;-1.14;81.15
78144;BME280;67394;52.522;13.622;2023-04-03T03:14:03;102510.78;;;-1.13;80.96
78144;BME280;67394;52.522;13.622;2023-04-03T03:16:29;102510.47;;;-1.05;81.05
78144;BME280;67394;52.522;13.622;2023-04-03T03:18:56;102510.78;;;-1.13;80.93
78144;BME280;67394;52.522;13.622;2023-04-03T03:21:24;102511.66;;;-1.12;80.61
78144;BME280;67394;52.522;13.622;2023-04-03T03:23:50;102510.38;;;-1.07;80.30
78144;BME280;67394;52.522;13.622;2023-04-03T03:26:16;102513.59;;;-1.20;80.57
78144;BME280;67394;52.522;13.622;2023-04-03T03:28:43;102521.03;;;-1.21;81.16
78144;BME280;67394;52.522;13.622;2023-04-03T03:31:09;102520.78;;;-1.24;81.32
78144;BME280;67394;52.522;13.622;2023-04-03T03:33:36;102524.06;;;-1.25;80.86
78144;BME280;67394;52.522;13.622;2023-04-03T03:36:02;102524.06;;;-1.25;81.12
78144;BME280;67394;52.522;13.622;2023-04-03T03:38:29;102533.47;;;-1.23;80.77
78144;BME280;67394;52.522;13.622;2023-04-03T03:40:55;102520.78;;;-1.24;81.44
78144;BME280;67394;52.522;13.622;2023-04-03T03:43:22;102526.09;;;-1.31;81.17
78144;BME280;67394;52.522;13.622;2023-04-03T03:45:52;102528.63;;;-1.31;81.21
78144;BME280;67394;52.522;13.622;2023-04-03T03:48:19;102519.44;;;-1.31;81.75
78144;BME280;67394;52.522;13.622;2023-04-03T03:50:47;102525.84;;;-1.34;81.36
78144;BME280;67394;52.522;13.622;2023-04-03T03:53:14;102523.63;;;-1.41;82.12
78144;BME280;67394;52.522;13.622;2023-04-03T03:55:40;102534.44;;;-1.42;82.26
78144;BME280;67394;52.522;13.622;2023-04-03T03:58:07;102527.16;;;-1.39;81.71
78144;BME280;67394;52.522;13.622;2023-04-03T04:00:34;102522.38;;;-1.47;81.85
78144;BME280;67394;52.522;13.622;2023-04-03T04:03:00;102526.91;;;-1.42;81.63
78144;BME280;67394;52.522;13.622;2023-04-03T04:05:27;102523.94;;;-1.49;82.32
78144;BME280;67394;52.522;13.622;2023-04-03T04:07:53;102525.66;;;-1.48;82.12
78144;BME280;67394;52.522;13.622;2023-04-03T04:10:19;102521.75;;;-1.44;81.63
78144;BME280;67394;52.522;13.622;2023-04-03T04:12:46;102526.19;;;-1.52;82.37
78144;BME280;67394;52.522;13.622;2023-04-03T04:15:12;102520.16;;;-1.54;82.20
78144;BME280;67394;52.522;13.622;2023-04-03T04:17:38;102529.09;;;-1.57;82.00
78144;BME280;67394;52.522;13.622;2023-04-03T04:20:05;102539.56;;;-1.63;82.44
78144;BME280;67394;52.522;13.622;2023-04-03T04:22:32;102529.97;;;-1.57;82.23
78144;BME280;67394;52.522;13.622;2023-04-03T04:24:58;102534.38;;;-1.54;82.46
78144;BME280;67394;52.522;13.622;2023-04-03T04:27:25;102534.53;;;-1.63;82.74
78144;BME280;67394;52.522;13.622;2023-04-03T04:29:51;102538.69;;;-1.63;82.50
78144;BME280;67394;52.522;13.622;2023-04-03T04:32:17;102527.13;;;-1.61;82.47
78144;BME280;67394;52.522;13.622;2023-04-03T04:34:43;102539.81;;;-1.60;82.51
78144;BME280;67394;52.522;13.622;2023-04-03T04:37:10;102531.72;;;-1.56;82.49
78144;BME280;67394;52.522;13.622;2023-04-03T04:39:36;102537.28;;;-1.60;82.30
78144;BME280;67394;52.522;13.622;2023-04-03T04:42:02;102531.13;;;-1.63;82.50
78144;BME280;67394;52.522;13.622;2023-04-03T04:44:29;102535.28;;;-1.64;82.30
78144;BME280;67394;52.522;13.622;2023-04-03T04:46:55;102535.78;;;-1.68;82.50
78144;BME280;67394;52.522;13.622;2023-04-03T04:49:21;102536.78;;;-1.66;82.75
78144;BME280;67394;52.522;13.622;2023-04-03T04:51:48;102543.59;;;-1.65;82.54
78144;BME280;67394;52.522;13.622;2023-04-03T04:54:20;102551.25;;;-1.63;82.96
78144;BME280;67394;52.522;13.622;2023-04-03T04:56:46;102551.13;;;-1.65;82.45
78144;BME280;67394;52.522;13.622;2023-04-03T04:59:13;102552.88;;;-1.64;82.84
78144;BME280;67394;52.522;13.622;2023-04-03T05:01:39;102558.66;;;-1.65;83.61
78144;BME280;67394;52.522;13.622;2023-04-03T05:04:05;102559.91;;;-1.60;83.32
78144;BME280;67394;52.522;13.622;2023-04-03T05:06:32;102559.38;;;-1.56;82.94
78144;BME280;67394;52.522;13.622;2023-04-03T05:08:58;102557.38;;;-1.50;83.22
78144;BME280;67394;52.522;13.622;2023-04-03T05:11:25;102560.38;;;-1.54;83.04
78144;BME280;67394;52.522;13.622;2023-04-03T05:13:52;102566.38;;;-1.41;82.37
78144;BME280;67394;52.522;13.622;2023-04-03T05:16:18;102565.97;;;-1.36;82.75
78144;BME280;67394;52.522;13.622;2023-04-03T05:18:44;102561.59;;;-1.38;82.47
78144;BME280;67394;52.522;13.622;2023-04-03T05:21:11;102556.16;;;-1.33;82.78
78144;BME280;67394;52.522;13.622;2023-04-03T05:23:37;102558.91;;;-1.30;82.59
78144;BME280;67394;52.522;13.622;2023-04-03T05:26:03;102554.22;;;-1.25;82.31
78144;BME280;67394;52.522;13.622;2023-04-03T05:28:30;102555.94;;;-1.14;82.24
78144;BME280;67394;52.522;13.622;2023-04-03T05:30:57;102566.63;;;-1.06;82.18
78144;BME280;67394;52.522;13.622;2023-04-03T05:33:25;102565.94;;;-1.04;82.31
78144;BME280;67394;52.522;13.622;2023-04-03T05:35:52;102571.09;;;-1.02;82.29
78144;BME280;67394;52.522;13.622;2023-04-03T05:38:19;102571.69;;;-0.95;81.31
78144;BME280;67394;52.522;13.622;2023-04-03T05:40:45;102571.28;;;-0.89;81.23
78144;BME280;67394;52.522;13.622;2023-04-03T05:43:12;102569.59;;;-0.79;81.21
78144;BME280;67394;52.522;13.622;2023-04-03T05:45:38;102575.06;;;-0.73;80.23
78144;BME280;67394;52.522;13.622;2023-04-03T05:48:04;102582.34;;;-0.65;80.98
78144;BME280;67394;52.522;13.622;2023-04-03T05:50:31;102580.28;;;-0.59;80.36
78144;BME280;67394;52.522;13.622;2023-04-03T05:52:57;102583.28;;;-0.53;80.23
78144;BME280;67394;52.522;13.622;2023-04-03T05:55:25;102586.25;;;-0.47;79.64
78144;BME280;67394;52.522;13.622;2023-04-03T05:57:51;102590.22;;;-0.39;78.65
78144;BME280;67394;52.522;13.622;2023-04-03T06:00:18;102593.19;;;-0.33;79.22
78144;BME280;67394;52.522;13.622;2023-04-03T06:02:44;102590.38;;;-0.26;78.59
78144;BME280;67394;52.522;13.622;2023-04-03T06:05:10;102588.63;;;-0.15;77.33
78144;BME280;67394;52.522;13.622;2023-04-03T06:07:37;102590.84;;;-0.08;77.45
78144;BME280;67394;52.522;13.622;2023-04-03T06:10:04;102590.63;;;0.00;77.62
78144;BME280;67394;52.522;13.622;2023-04-03T06:12:30;102592.31;;;0.00;76.72
78144;BME280;67394;52.522;13.622;2023-04-03T06:14:57;102592.75;;;0.06;76.43
78144;BME280;67394;52.522;13.622;2023-04-03T06:17:23;102596.56;;;0.13;76.73
78144;BME280;67394;52.522;13.622;2023-04-03T06:19:50;102591.75;;;0.16;75.69
78144;BME280;67394;52.522;13.622;2023-04-03T06:22:16;102594.06;;;0.24;75.38
78144;BME280;67394;52.522;13.622;2023-04-03T06:24:42;102601.97;;;0.29;75.07
78144;BME280;67394;52.522;13.622;2023-04-03T06:27:10;102595.72;;;0.35;74.60
78144;BME280;67394;52.522;13.622;2023-04-03T06:29:37;102601.97;;;0.41;74.60
78144;BME280;67394;52.522;13.622;2023-04-03T06:32:03;102594.94;;;0.48;73.86
78144;BME280;67394;52.522;13.622;2023-04-03T06:34:30;102602.06;;;0.54;74.18
78144;BME280;67394;52.522;13.622;2023-04-03T06:36:56;102605.28;;;0.63;73.04
78144;BME280;67394;52.522;13.622;2023-04-03T06:39:22;102599.66;;;0.67;72.49
78144;BME280;67394;52.522;13.622;2023-04-03T06:41:50;102609.84;;;0.80;72.06
78144;BME280;67394;52.522;13.622;2023-04-03T06:44:18;102603.03;;;0.91;72.04
78144;BME280;67394;52.522;13.622;2023-04-03T06:46:44;102607.31;;;0.92;72.36
78144;BME280;67394;52.522;13.622;2023-04-03T06:49:11;102610.47;;;1.01;70.73
78144;BME280;67394;52.522;13.622;2023-04-03T06:51:37;102608.16;;;1.04;71.57
78144;BME280;67394;52.522;13.622;2023-04-03T06:54:05;102616.38;;;1.13;71.02
78144;BME280;67394;52.522;13.622;2023-04-03T06:56:32;102618.75;;;1.23;71.02
78144;BME280;67394;52.522;13.622;2023-04-03T06:58:58;102625.75;;;1.27;70.41
78144;BME280;67394;52.522;13.622;2023-04-03T07:01:26;102621.00;;;1.43;70.29
78144;BME280;67394;52.522;13.622;2023-04-03T07:03:53;102625.50;;;1.48;68.97
78144;BME280;67394;52.522;13.622;2023-04-03T07:06:20;102627.34;;;1.50;68.96
78144;BME280;67394;52.522;13.622;2023-04-03T07:08:47;102633.09;;;1.48;68.62
78144;BME280;67394;52.522;13.622;2023-04-03T07:11:13;102633.25;;;1.51;69.90
78144;BME280;67394;52.522;13.622;2023-04-03T07:13:40;102638.59;;;1.30;68.14
78144;BME280;67394;52.522;13.622;2023-04-03T07:16:08;102646.84;;;1.28;68.89
78144;BME280;67394;52.522;13.622;2023-04-03T07:18:35;102646.69;;;1.13;69.74
78144;BME280;67394;52.522;13.622;2023-04-03T07:21:02;102644.38;;;1.16;69.28
78144;BME280;67394;52.522;13.622;2023-04-03T07:23:29;102641.28;;;1.20;69.65
78144;BME280;67394;52.522;13.622;2023-04-03T07:25:55;102652.00;;;1.29;69.60
78144;BME280;67394;52.522;13.622;2023-04-03T07:28:23;102649.81;;;1.34;68.84
78144;BME280;67394;52.522;13.622;2023-04-03T07:30:58;102655.81;;;1.48;69.08
78144;BME280;67394;52.522;13.622;2023-04-03T07:33:25;102650.03;;;1.62;68.09
78144;BME280;67394;52.522;13.622;2023-04-03T07:35:52;102647.41;;;1.85;67.92
78144;BME280;67394;52.522;13.622;2023-04-03T07:38:18;102656.81;;;1.99;63.68
78144;BME280;67394;52.522;13.622;2023-04-03T07:40:46;102655.84;;;2.10;64.39
78144;BME280;67394;52.522;13.622;2023-04-03T07:43:14;102657.63;;;2.11;62.41
78144;BME280;67394;52.522;13.622;2023-04-03T07:45:41;102657.78;;;2.14;62.35
78144;BME280;67394;52.522;13.622;2023-04-03T07:48:08;102654.09;;;2.09;62.57
78144;BME280;67394;52.522;13.622;2023-04-03T07:50:35;102654.38;;;2.14;62.52
78144;BME280;67394;52.522;13.622;2023-04-03T07:53:02;102672.03;;;2.26;62.18
78144;BME280;67394;52.522;13.622;2023-04-03T07:55:28;102657.53;;;2.36;61.21
78144;BME280;67394;52.522;13.622;2023-04-03T07:57:54;102653.50;;;2.51;61.15
78144;BME280;67394;52.522;13.622;2023-04-03T08:00:21;102661.25;;;2.54;61.69
78144;BME280;67394;52.522;13.622;2023-04-03T08:02:47;102664.38;;;2.50;61.38
78144;BME280;67394;52.522;13.622;2023-04-03T08:05:13;102666.88;;;2.37;60.70
78144;BME280;67394;52.522;13.622;2023-04-03T08:07:40;102665.13;;;2.36;61.79
78144;BME280;67394;52.522;13.622;2023-04-03T08:10:06;102662.78;;;2.26;61.96
78144;BME280;67394;52.522;13.622;2023-04-03T08:12:33;102667.06;;;2.27;61.96
78144;BME280;67394;52.522;13.622;2023-04-03T08:15:00;102667.06;;;2.27;61.56
78144;BME280;67394;52.522;13.622;2023-04-03T08:17:26;102661.63;;;2.21;62.06
78144;BME280;67394;52.522;13.622;2023-04-03T08:19:53;102666.25;;;2.15;61.53
78144;BME280;67394;52.522;13.622;2023-04-03T08:22:19;102661.88;;;2.12;61.24
78144;BME280;67394;52.522;13.622;2023-04-03T08:24:45;102662.75;;;2.13;62.80
78144;BME280;67394;52.522;13.622;2023-04-03T08:27:24;102676.34;;;2.40;61.87
78144;BME280;67394;52.522;13.622;2023-04-03T08:29:51;102667.31;;;2.43;58.85
78144;BME280;67394;52.522;13.622;2023-04-03T08:32:17;102669.56;;;2.52;59.90
78144;BME280;67394;52.522;13.622;2023-04-03T08:34:43;102672.28;;;2.68;58.96
78144;BME280;67394;52.522;13.622;2023-04-03T08:37:10;102666.84;;;2.75;58.15
78144;BME280;67394;52.522;13.622;2023-04-03T08:39:36;102667.50;;;2.73;57.87
78144;BME280;67394;52.522;13.622;2023-04-03T08:42:13;102658.16;;;2.72;58.72
78144;BME280;67394;52.522;13.622;2023-04-03T08:45:21;102646.66;;;2.90;59.08
78144;BME280;67394;52.522;13.622;2023-04-03T08:50:31;102646.22;;;3.23;57.81
78144;BME280;67394;52.522;13.622;2023-04-03T08:53:01;102645.47;;;3.39;57.78
78144;BME280;67394;52.522;13.622;2023-04-03T09:00:34;102645.75;;;3.16;56.72
78144;BME280;67394;52.522;13.622;2023-04-03T09:03:03;102638.59;;;3.37;56.42
78144;BME280;67394;52.522;13.622;2023-04-03T09:05:39;102635.84;;;3.89;56.21
78144;BME280;67394;52.522;13.622;2023-04-03T09:08:25;102633.75;;;4.12;54.26
78144;BME280;67394;52.522;13.622;2023-04-03T09:11:04;102637.94;;;4.26;50.53
78144;BME280;67394;52.522;13.622;2023-04-03T09:16:00;102626.75;;;4.22;49.86
78144;BME280;67394;52.522;13.622;2023-04-03T09:18:37;102626.91;;;4.40;49.87
78144;BME280;67394;52.522;13.622;2023-04-03T09:21:21;102636.78;;;4.35;49.59
78144;BME280;67394;52.522;13.622;2023-04-03T09:23:56;102635.16;;;4.21;49.69
78144;BME280;67394;52.522;13.622;2023-04-03T09:26:52;102645.31;;;4.21;49.99
78144;BME280;67394;52.522;13.622;2023-04-03T09:29:22;102639.16;;;4.18;49.96
78144;BME280;67394;52.522;13.622;2023-04-03T09:31:53;102643.56;;;4.20;51.59
78144;BME280;67394;52.522;13.622;2023-04-03T09:34:28;102640.75;;;4.30;50.56
78144;BME280;67394;52.522;13.622;2023-04-03T09:36:59;102639.34;;;4.35;50.92
78144;BME280;67394;52.522;13.622;2023-04-03T09:39:28;102630.94;;;4.51;52.27
78144;BME280;67394;52.522;13.622;2023-04-03T09:42:34;102640.81;;;4.47;51.35
78144;BME280;67394;52.522;13.622;2023-04-03T09:45:22;102641.97;;;4.52;52.82
78144;BME280;67394;52.522;13.622;2023-04-03T09:48:05;102649.50;;;4.35;51.96
78144;BME280;67394;52.522;13.622;2023-04-03T09:50:35;102638.13;;;4.14;52.45
78144;BME280;67394;52.522;13.622;2023-04-03T09:53:07;102642.75;;;4.07;52.69
78144;BME280;67394;52.522;13.622;2023-04-03T09:55:42;102647.91;;;4.08;52.04
78144;BME280;67394;52.522;13.622;2023-04-03T09:58:27;102639.34;;;3.91;53.18
78144;BME280;67394;52.522;13.622;2023-04-03T10:01:39;102637.06;;;3.81;53.50
78144;BME280;67394;52.522;13.622;2023-04-03T10:04:16;102640.19;;;3.77;53.83
78144;BME280;67394;52.522;13.622;2023-04-03T10:06:48;102636.69;;;3.75;54.06
78144;BME280;67394;52.522;13.622;2023-04-03T10:09:29;102631.63;;;3.90;54.46
78144;BME280;67394;52.522;13.622;2023-04-03T10:12:11;102622.97;;;4.45;54.14
78144;BME280;67394;52.522;13.622;2023-04-03T10:14:39;102621.28;;;4.91;54.10
78144;BME280;67394;52.522;13.622;2023-04-03T10:22:36;102614.28;;;4.56;52.47
78144;BME280;67394;52.522;13.622;2023-04-03T10:28:30;102627.69;;;4.54;52.80
78144;BME280;67394;52.522;13.622;2023-04-03T10:33:44;102619.72;;;4.48;53.17
78144;BME280;67394;52.522;13.622;2023-04-03T10:36:46;102613.25;;;4.53;52.25
78144;BME280;67394;52.522;13.622;2023-04-03T10:42:17;102606.06;;;4.91;51.32
78144;BME280;67394;52.522;13.622;2023-04-03T10:44:55;102607.19;;;4.96;52.43
78144;BME280;67394;52.522;13.622;2023-04-03T10:50:44;102599.09;;;4.41;51.45
78144;BME280;67394;52.522;13.622;2023-04-03T10:58:40;102603.41;;;4.13;53.98
78144;BME280;67394;52.522;13.622;2023-04-03T11:01:20;102600.66;;;3.95;53.95
78144;BME280;67394;52.522;13.622;2023-04-03T11:03:55;102595.50;;;4.09;53.79
78144;BME280;67394;52.522;13.622;2023-04-03T11:06:25;102604.97;;;4.11;54.93
78144;BME280;67394;52.522;13.622;2023-04-03T11:08:58;102607.41;;;4.10;53.96
78144;BME280;67394;52.522;13.622;2023-04-03T11:11:31;102597.78;;;4.04;54.78
78144;BME280;67394;52.522;13.622;2023-04-03T11:14:05;102594.19;;;4.15;55.05
78144;BME280;67394;52.522;13.622;2023-04-03T11:16:40;102602.94;;;4.05;55.51
78144;BME280;67394;52.522;13.622;2023-04-03T11:19:21;102594.53;;;4.07;56.00
78144;BME280;67394;52.522;13.622;2023-04-03T11:21:54;102591.56;;;4.28;57.17
78144;BME280;67394;52.522;13.622;2023-04-03T11:24:25;102591.56;;;4.28;54.89
78144;BME280;67394;52.522;13.622;2023-04-03T11:26:53;102589.75;;;4.57;55.59
78144;BME280;67394;52.522;13.622;2023-04-03T11:29:23;102586.59;;;4.75;53.28
78144;BME280;67394;52.522;13.622;2023-04-03T11:34:51;102584.34;;;4.82;54.35
78144;BME280;67394;52.522;13.622;2023-04-03T11:37:28;102577.78;;;4.85;53.96
78144;BME280;67394;52.522;13.622;2023-04-03T11:40:00;102569.44;;;4.88;52.22
78144;BME280;67394;52.522;13.622;2023-04-03T11:42:37;102574.59;;;4.89;51.00
78144;BME280;67394;52.522;13.622;2023-04-03T11:47:52;102571.69;;;5.14;49.85
78144;BME280;67394;52.522;13.622;2023-04-03T11:50:43;102569.53;;;4.89;49.30
78144;BME280;67394;52.522;13.622;2023-04-03T11:58:20;102575.09;;;4.67;53.59
78144;BME280;67394;52.522;13.622;2023-04-03T12:03:30;102574.19;;;4.51;53.38
78144;BME280;67394;52.522;13.622;2023-04-03T12:08:46;102559.47;;;4.60;53.19
78144;BME280;67394;52.522;13.622;2023-04-03T12:16:20;102553.75;;;4.95;51.29
78144;BME280;67394;52.522;13.622;2023-04-03T12:24:05;102559.69;;;5.11;49.21
78144;BME280;67394;52.522;13.622;2023-04-03T12:27:01;102557.13;;;4.79;49.54
78144;BME280;67394;52.522;13.622;2023-04-03T12:37:24;102553.66;;;4.93;48.54
78144;BME280;67394;52.522;13.622;2023-04-03T12:45:22;102556.44;;;5.14;51.55
78144;BME280;67394;52.522;13.622;2023-04-03T12:47:51;102556.38;;;5.12;50.61
78144;BME280;67394;52.522;13.622;2023-04-03T12:50:23;102553.53;;;5.06;50.78
78144;BME280;67394;52.522;13.622;2023-04-03T12:52:56;102543.00;;;5.00;51.50
78144;BME280;67394;52.522;13.622;2023-04-03T12:55:23;102544.28;;;4.92;51.49
78144;BME280;67394;52.522;13.622;2023-04-03T12:57:49;102544.03;;;4.88;51.40
78144;BME280;67394;52.522;13.622;2023-04-03T13:00:34;102541.44;;;4.86;50.00
78144;BME280;67394;52.522;13.622;2023-04-03T13:03:02;102537.72;;;4.96;51.21
78144;BME280;67394;52.522;13.622;2023-04-03T13:05:30;102533.97;;;5.22;52.04
78144;BME280;67394;52.522;13.622;2023-04-03T13:08:02;102532.69;;;5.30;50.54
78144;BME280;67394;52.522;13.622;2023-04-03T13:10:29;102530.38;;;5.34;49.87
78144;BME280;67394;52.522;13.622;2023-04-03T13:12:58;102527.28;;;5.24;50.98
78144;BME280;67394;52.522;13.622;2023-04-03T13:15:27;102535.06;;;5.10;50.81
78144;BME280;67394;52.522;13.622;2023-04-03T13:17:54;102534.81;;;4.90;50.97
78144;BME280;67394;52.522;13.622;2023-04-03T13:20:27;102529.34;;;4.82;51.16
78144;BME280;67394;52.522;13.622;2023-04-03T13:23:02;102525.38;;;4.71;51.66
78144;BME280;67394;52.522;13.622;2023-04-03T13:25:32;102528.59;;;4.68;52.76
78144;BME280;67394;52.522;13.622;2023-04-03T13:28:01;102532.72;;;4.66;53.69
78144;BME280;67394;52.522;13.622;2023-04-03T13:30:40;102527.91;;;4.71;54.46
78144;BME280;67394;52.522;13.622;2023-04-03T13:33:26;102530.34;;;4.69;52.38
78144;BME280;67394;52.522;13.622;2023-04-03T13:36:17;102532.09;;;4.70;53.16
78144;BME280;67394;52.522;13.622;2023-04-03T13:38:44;102525.06;;;4.81;53.97
78144;BME280;67394;52.522;13.622;2023-04-03T13:41:25;102527.28;;;4.91;53.07
78144;BME280;67394;52.522;13.622;2023-04-03T13:43:52;102515.78;;;4.82;52.70
78144;BME280;67394;52.522;13.622;2023-04-03T13:46:27;102526.03;;;4.99;53.85
78144;BME280;67394;52.522;13.622;2023-04-03T13:48:55;102513.66;;;5.05;53.07
78144;BME280;67394;52.522;13.622;2023-04-03T13:51:27;102515.25;;;4.87;53.29
78144;BME280;67394;52.522;13.622;2023-04-03T13:53:59;102514.94;;;4.97;53.15
78144;BME280;67394;52.522;13.622;2023-04-03T13:56:27;102510.94;;;5.02;52.57
78144;BME280;67394;52.522;13.622;2023-04-03T14:04:20;102503.56;;;5.07;53.23
78144;BME280;67394;52.522;13.622;2023-04-03T14:06:48;102514.09;;;4.98;54.63
78144;BME280;67394;52.522;13.622;2023-04-03T14:09:16;102516.50;;;5.11;53.29
78144;BME280;67394;52.522;13.622;2023-04-03T14:11:43;102511.88;;;5.37;52.40
78144;BME280;67394;52.522;13.622;2023-04-03T14:14:16;102504.38;;;5.56;51.66
78144;BME280;67394;52.522;13.622;2023-04-03T14:16:46;102504.31;;;5.72;51.63
78144;BME280;67394;52.522;13.622;2023-04-03T14:19:25;102500.41;;;5.61;51.03